createdAt,value
2022-08-11T00:01:59.512Z,100272.19
2022-08-11T00:04:27.124Z,100269.66
2022-08-11T00:06:54.672Z,100267.31
2022-08-11T00:09:22.798Z,100266.00
2022-08-11T00:11:58.736Z,100274.25
2022-08-11T00:14:36.997Z,100258.13
2022-08-11T00:17:09.568Z,100269.09
2022-08-11T00:20:12.792Z,100267.13
2022-08-11T00:22:34.215Z,100262.63
2022-08-11T00:25:07.849Z,100254.34
2022-08-11T00:27:35.723Z,100263.81
2022-08-11T00:30:03.935Z,100263.78
2022-08-11T00:32:31.104Z,100260.59
2022-08-11T00:35:54.810Z,100256.13
2022-08-11T00:37:47.943Z,100269.44
2022-08-11T00:40:27.935Z,100275.16
2022-08-11T00:43:20.291Z,100273.84
2022-08-11T00:46:04.888Z,100266.41
2022-08-11T00:48:59.510Z,100273.16
2022-08-11T00:52:05.136Z,100266.75
2022-08-11T00:54:41.231Z,100267.56
2022-08-11T00:57:10.338Z,100271.50
2022-08-11T01:00:10.912Z,100270.41
2022-08-11T01:02:43.848Z,100276.91
2022-08-11T01:05:13.892Z,100277.03
2022-08-11T01:08:02.530Z,100270.03
2022-08-11T01:10:48.796Z,100270.44
2022-08-11T01:13:34.919Z,100271.47
2022-08-11T01:16:01.740Z,100265.34
2022-08-11T01:18:34.704Z,100266.56
2022-08-11T01:21:10.568Z,100265.19
2022-08-11T01:23:55.762Z,100262.88
2022-08-11T01:26:41.244Z,100264.78
2022-08-11T01:29:26.726Z,100270.88
2022-08-11T01:31:56.542Z,100271.25
2022-08-11T01:34:27.261Z,100272.88
2022-08-11T01:37:12.682Z,100267.13
2022-08-11T01:39:58.042Z,100272.38
2022-08-11T01:42:46.892Z,100265.69
2022-08-11T01:45:26.987Z,100269.19
2022-08-11T01:48:00.041Z,100271.09
2022-08-11T01:50:26.873Z,100267.06
2022-08-11T01:53:15.641Z,100275.03
2022-08-11T01:55:52.155Z,100278.16
2022-08-11T01:58:43.127Z,100275.78
2022-08-11T02:01:24.407Z,100284.19
2022-08-11T02:04:13.846Z,100290.28
2022-08-11T02:06:58.894Z,100275.81
2022-08-11T02:09:33.396Z,100282.72
2022-08-11T02:12:10.122Z,100278.91
2022-08-11T02:14:42.309Z,100273.16
2022-08-11T02:17:38.031Z,100273.94
2022-08-11T02:20:14.588Z,100271.19
2022-08-11T02:22:44.197Z,100264.00
2022-08-11T02:25:22.960Z,100266.94
2022-08-11T02:27:55.765Z,100265.22
2022-08-11T02:30:25.353Z,100262.88
2022-08-11T02:32:52.204Z,100269.97
2022-08-11T02:35:22.796Z,100280.75
2022-08-11T02:37:49.611Z,100275.38
2022-08-11T02:40:19.451Z,100276.59
2022-08-11T02:42:46.474Z,100274.22
2022-08-11T02:45:28.448Z,100274.78
2022-08-11T02:48:10.177Z,100265.19
2022-08-11T02:50:40.894Z,100270.22
2022-08-11T02:53:18.863Z,100283.28
2022-08-11T02:56:04.530Z,100281.09
2022-08-11T02:58:34.393Z,100273.22
2022-08-11T03:01:19.927Z,100273.81
2022-08-11T03:03:53.599Z,100276.53
2022-08-11T03:06:38.744Z,100279.47
2022-08-11T03:09:24.270Z,100274.34
2022-08-11T03:12:04.261Z,100282.28
2022-08-11T03:14:39.720Z,100284.56
2022-08-11T03:17:25.152Z,100288.72
2022-08-11T03:20:02.784Z,100282.72
2022-08-11T03:22:40.407Z,100275.28
2022-08-11T03:25:30.627Z,100281.47
2022-08-11T03:28:04.167Z,100282.16
2022-08-11T03:30:49.619Z,100288.69
2022-08-11T03:33:27.788Z,100281.28
2022-08-11T03:36:03.757Z,100282.50
2022-08-11T03:38:43.794Z,100282.34
2022-08-11T03:42:01.378Z,100284.09
2022-08-11T03:44:16.621Z,100296.97
2022-08-11T03:47:02.369Z,100292.88
2022-08-11T03:49:47.633Z,100284.84
2022-08-11T03:52:29.020Z,100299.59
2022-08-11T03:55:04.310Z,100293.25
2022-08-11T03:57:49.711Z,100290.50
2022-08-11T04:00:19.296Z,100295.88
2022-08-11T04:02:56.479Z,100297.09
2022-08-11T04:05:32.529Z,100289.88
2022-08-11T04:08:17.963Z,100300.72
2022-08-11T04:10:58.285Z,100286.19
2022-08-11T04:13:35.778Z,100295.63
2022-08-11T04:16:11.827Z,100292.72
2022-08-11T04:18:51.385Z,100299.19
2022-08-11T04:21:35.303Z,100301.75
2022-08-11T04:24:38.613Z,100297.97
2022-08-11T04:27:06.276Z,100292.31
2022-08-11T04:30:05.087Z,100297.81
2022-08-11T04:32:36.314Z,100294.59
2022-08-11T04:35:22.192Z,100303.78
2022-08-11T04:37:51.385Z,100300.66
2022-08-11T04:40:39.229Z,100296.34
2022-08-11T04:43:24.746Z,100300.28
2022-08-11T04:45:54.342Z,100301.84
2022-08-11T04:48:39.698Z,100291.94
2022-08-11T04:51:17.482Z,100305.84
2022-08-11T04:54:03.029Z,100306.19
2022-08-11T04:56:31.842Z,100299.97
2022-08-11T04:59:07.967Z,100291.91
2022-08-11T05:01:37.384Z,100301.72
2022-08-11T05:04:04.558Z,100302.63
2022-08-11T05:06:31.352Z,100304.94
2022-08-11T05:09:10.379Z,100299.19
2022-08-11T05:11:40.076Z,100302.81
2022-08-11T05:14:12.870Z,100302.22
2022-08-11T05:16:46.056Z,100309.31
2022-08-11T05:19:17.486Z,100310.91
2022-08-11T05:21:47.968Z,100306.50
2022-08-11T05:24:23.270Z,100309.19
2022-08-11T05:26:50.956Z,100308.38
2022-08-11T05:29:26.468Z,100317.13
2022-08-11T05:31:57.755Z,100303.72
2022-08-11T05:34:24.577Z,100315.22
2022-08-11T05:37:17.276Z,100318.22
2022-08-11T05:39:45.902Z,100321.28
2022-08-11T05:42:29.592Z,100328.91
2022-08-11T05:45:00.996Z,100327.47
2022-08-11T05:47:27.995Z,100329.59
2022-08-11T05:49:55.408Z,100331.94
2022-08-11T05:52:31.662Z,100329.81
2022-08-11T05:55:06.247Z,100329.97
2022-08-11T05:57:48.997Z,100339.91
2022-08-11T06:00:19.273Z,100339.81
2022-08-11T06:02:50.146Z,100337.50
2022-08-11T06:05:19.407Z,100342.84
2022-08-11T06:07:49.454Z,100347.44
2022-08-11T06:10:27.160Z,100337.34
2022-08-11T06:12:54.335Z,100335.19
2022-08-11T06:15:21.619Z,100336.56
2022-08-11T06:17:49.172Z,100331.91
2022-08-11T06:20:17.924Z,100333.06
2022-08-11T06:22:52.965Z,100322.78
2022-08-11T06:25:20.052Z,100325.44
2022-08-11T06:27:54.015Z,100330.84
2022-08-11T06:30:32.735Z,100335.66
2022-08-11T06:33:00.542Z,100328.59
2022-08-11T06:35:38.616Z,100340.03
2022-08-11T06:38:05.471Z,100332.00
2022-08-11T06:40:43.519Z,100331.19
2022-08-11T06:43:19.611Z,100326.75
2022-08-11T06:46:05.500Z,100324.91
2022-08-11T06:48:33.510Z,100334.78
2022-08-11T06:51:03.240Z,100336.69
2022-08-11T06:53:32.757Z,100343.06
2022-08-11T06:55:59.714Z,100334.22
2022-08-11T06:58:34.742Z,100336.25
2022-08-11T07:01:06.372Z,100344.25
2022-08-11T07:03:36.954Z,100338.22
2022-08-11T07:06:03.788Z,100344.09
2022-08-11T07:09:02.841Z,100341.16
2022-08-11T07:11:29.679Z,100337.06
2022-08-11T07:13:59.091Z,100335.97
2022-08-11T07:16:26.932Z,100332.84
2022-08-11T07:19:04.455Z,100329.84
2022-08-11T07:22:01.445Z,100333.41
2022-08-11T07:24:59.877Z,100335.69
2022-08-11T07:27:17.611Z,100334.69
2022-08-11T07:29:46.001Z,100330.97
2022-08-11T07:32:14.800Z,100338.44
2022-08-11T07:34:45.799Z,100334.72
2022-08-11T07:37:15.209Z,100334.34
2022-08-11T07:39:42.721Z,100336.22
2022-08-11T07:42:14.894Z,100332.78
2022-08-11T07:44:42.111Z,100333.94
2022-08-11T07:47:10.472Z,100323.25
2022-08-11T07:49:38.217Z,100320.41
2022-08-11T07:52:05.751Z,100324.06
2022-08-11T07:54:33.631Z,100322.81
2022-08-11T07:57:08.997Z,100328.66
2022-08-11T07:59:57.508Z,100330.56
2022-08-11T08:02:29.036Z,100326.94
2022-08-11T08:04:56.732Z,100330.44
2022-08-11T08:07:23.953Z,100321.06
2022-08-11T08:09:51.722Z,100327.56
2022-08-11T08:12:20.973Z,100321.19
2022-08-11T08:14:47.986Z,100327.38
2022-08-11T08:17:14.994Z,100329.88
2022-08-11T08:19:43.322Z,100333.47
2022-08-11T08:22:37.885Z,100331.56
2022-08-11T08:24:59.378Z,100326.16
2022-08-11T08:27:26.492Z,100322.31
2022-08-11T08:29:55.980Z,100322.88
2022-08-11T08:32:23.160Z,100327.91
2022-08-11T08:34:50.700Z,100312.72
2022-08-11T08:37:46.420Z,100313.00
2022-08-11T08:40:08.910Z,100316.09
2022-08-11T08:42:42.954Z,100306.59
2022-08-11T08:45:13.865Z,100309.84
2022-08-11T08:47:47.815Z,100314.25
2022-08-11T08:50:17.703Z,100309.47
2022-08-11T08:52:50.653Z,100309.03
2022-08-11T08:55:18.937Z,100303.38
2022-08-11T08:57:48.332Z,100298.16
2022-08-11T09:00:20.767Z,100302.59
2022-08-11T09:02:50.117Z,100297.28
2022-08-11T09:05:18.084Z,100296.25
2022-08-11T09:07:47.166Z,100290.38
2022-08-11T09:10:15.069Z,100290.47
2022-08-11T09:12:42.109Z,100287.41
2022-08-11T09:15:10.660Z,100294.94
2022-08-11T09:17:40.523Z,100295.09
2022-08-11T09:20:07.769Z,100293.22
2022-08-11T09:22:39.167Z,100281.59
2022-08-11T09:25:06.541Z,100282.50
2022-08-11T09:27:38.979Z,100281.75
2022-08-11T09:30:19.105Z,100278.88
2022-08-11T09:32:46.847Z,100287.97
2022-08-11T09:35:13.904Z,100287.19
2022-08-11T09:37:55.438Z,100281.22
2022-08-11T09:40:27.232Z,100284.22
2022-08-11T09:42:54.972Z,100279.34
2022-08-11T09:45:21.996Z,100290.31
2022-08-11T09:47:49.167Z,100284.59
2022-08-11T09:50:16.509Z,100278.50
2022-08-11T09:52:57.394Z,100272.38
2022-08-11T09:55:32.667Z,100274.97
2022-08-11T09:58:00.570Z,100280.41
2022-08-11T10:00:36.079Z,100271.13
2022-08-11T10:03:04.502Z,100270.28
2022-08-11T10:05:31.559Z,100266.84
2022-08-11T10:07:59.358Z,100267.63
2022-08-11T10:10:26.352Z,100258.97
2022-08-11T10:12:58.980Z,100264.19
2022-08-11T10:15:26.476Z,100259.59
2022-08-11T10:17:54.437Z,100254.72
2022-08-11T10:20:25.727Z,100274.44
2022-08-11T10:22:52.865Z,100258.69
2022-08-11T10:25:20.277Z,100250.59
2022-08-11T10:28:30.482Z,100254.88
2022-08-11T10:30:34.724Z,100236.84
2022-08-11T10:33:02.950Z,100241.00
2022-08-11T10:35:34.915Z,100227.41
2022-08-11T10:38:07.828Z,100247.81
2022-08-11T10:40:40.731Z,100239.91
2022-08-11T10:43:08.349Z,100233.28
2022-08-11T10:45:40.277Z,100232.78
2022-08-11T10:48:09.233Z,100217.22
2022-08-11T10:50:39.161Z,100214.66
2022-08-11T10:53:07.284Z,100202.00
2022-08-11T10:55:35.455Z,100204.72
2022-08-11T10:58:05.385Z,100201.66
2022-08-11T11:00:33.046Z,100200.09
2022-08-11T11:03:22.611Z,100191.06
2022-08-11T11:06:27.870Z,100198.72
2022-08-11T11:08:38.829Z,100192.44
2022-08-11T11:11:06.671Z,100205.72
2022-08-11T11:13:34.838Z,100196.69
2022-08-11T11:16:01.888Z,100196.34
2022-08-11T11:18:31.889Z,100190.34
2022-08-11T11:21:02.271Z,100183.22
2022-08-11T11:23:41.010Z,100189.00
2022-08-11T11:26:12.787Z,100182.97
2022-08-11T11:29:07.270Z,100165.38
2022-08-11T11:31:44.846Z,100199.09
2022-08-11T11:34:12.566Z,100176.84
2022-08-11T11:36:49.937Z,100169.00
2022-08-11T11:39:21.356Z,100171.06
2022-08-11T11:41:53.122Z,100164.16
2022-08-11T11:44:20.668Z,100167.81
2022-08-11T11:46:47.601Z,100156.75
2022-08-11T11:49:17.196Z,100149.94
2022-08-11T11:51:45.897Z,100159.59
2022-08-11T11:54:17.763Z,100161.00
2022-08-11T11:56:44.770Z,100161.88
2022-08-11T11:59:12.329Z,100153.84
2022-08-11T12:01:42.051Z,100142.94
2022-08-11T12:04:17.485Z,100134.59
2022-08-11T12:06:44.865Z,100136.25
2022-08-11T12:09:12.284Z,100124.06
2022-08-11T12:11:39.267Z,100129.94
2022-08-11T12:14:10.333Z,100126.88
2022-08-11T12:16:39.649Z,100122.44
2022-08-11T12:19:08.685Z,100117.34
2022-08-11T12:21:36.667Z,100122.28
2022-08-11T12:24:04.729Z,100114.47
2022-08-11T12:26:32.905Z,100108.34
2022-08-11T12:29:00.368Z,100111.63
2022-08-11T12:31:30.387Z,100105.59
2022-08-11T12:34:03.361Z,100108.59
2022-08-11T12:36:32.937Z,100092.94
2022-08-11T12:39:00.186Z,100102.03
2022-08-11T12:41:34.530Z,100091.19
2022-08-11T12:44:02.331Z,100101.25
2022-08-11T12:46:31.562Z,100096.78
2022-08-11T12:49:02.066Z,100088.53
2022-08-11T12:51:32.137Z,100085.00
2022-08-11T12:54:28.497Z,100081.13
2022-08-11T12:56:59.274Z,100073.34
2022-08-11T12:59:26.592Z,100086.25
2022-08-11T13:01:54.044Z,100059.94
2022-08-11T13:04:20.956Z,100058.78
2022-08-11T13:06:47.928Z,100066.66
2022-08-11T13:09:14.806Z,100061.00
2022-08-11T13:11:55.586Z,100068.56
2022-08-11T13:14:27.385Z,100048.88
2022-08-11T13:16:54.471Z,100052.81
2022-08-11T13:19:21.813Z,100035.91
2022-08-11T13:21:52.343Z,100043.44
2022-08-11T13:24:20.032Z,100043.97
2022-08-11T13:26:49.922Z,100035.66
2022-08-11T13:29:21.238Z,100038.97
2022-08-11T13:31:48.628Z,100031.66
2022-08-11T13:34:20.047Z,100029.97
2022-08-11T13:36:49.249Z,100022.66
2022-08-11T13:39:16.365Z,100013.06
2022-08-11T13:41:44.278Z,100020.34
2022-08-11T13:44:16.325Z,100019.59
2022-08-11T13:46:45.026Z,99998.09
2022-08-11T13:49:15.844Z,99997.72
2022-08-11T13:51:43.324Z,100002.91
2022-08-11T13:54:11.933Z,100001.91
2022-08-11T13:56:39.816Z,100002.75
2022-08-11T13:59:10.117Z,100003.88
2022-08-11T14:02:19.562Z,99997.75
2022-08-11T14:04:32.292Z,99988.22
2022-08-11T14:07:03.246Z,99992.59
2022-08-11T14:09:32.334Z,99981.31
2022-08-11T14:12:22.096Z,99980.38
2022-08-11T14:14:52.131Z,99976.84
2022-08-11T14:17:43.765Z,99977.69
2022-08-11T14:20:14.199Z,99976.00
2022-08-11T14:22:55.204Z,99968.00
2022-08-11T14:25:22.145Z,99967.94
2022-08-11T14:28:31.071Z,99962.06
2022-08-11T14:31:00.486Z,99965.84
2022-08-11T14:33:57.909Z,99962.69
2022-08-11T14:36:15.828Z,99964.16
2022-08-11T14:38:42.994Z,99949.84
2022-08-11T14:41:10.757Z,99960.00
2022-08-11T14:44:13.075Z,99950.41
2022-08-11T14:46:25.333Z,99956.19
2022-08-11T14:48:52.315Z,99948.38
2022-08-11T14:51:21.187Z,99948.16
2022-08-11T14:53:58.404Z,99941.13
2022-08-11T14:56:25.978Z,99949.56
2022-08-11T14:58:54.826Z,99957.34
2022-08-11T15:01:21.876Z,99947.25
2022-08-11T15:04:34.494Z,99951.13
2022-08-11T15:06:35.759Z,99935.28
2022-08-11T15:09:08.688Z,99936.97
2022-08-11T15:11:36.376Z,99936.38
2022-08-11T15:14:04.568Z,99933.91
2022-08-11T15:16:32.140Z,99936.56
2022-08-11T15:18:59.285Z,99932.06
2022-08-11T15:21:26.140Z,99928.00
2022-08-11T15:26:58.909Z,99925.75
2022-08-11T15:29:29.138Z,99925.44
2022-08-11T15:31:56.237Z,99922.78
2022-08-11T15:34:25.622Z,99913.66
2022-08-11T15:36:57.255Z,99917.09
2022-08-11T15:39:27.221Z,99909.31
2022-08-11T15:41:58.802Z,99909.75
2022-08-11T15:45:00.627Z,99906.25
2022-08-11T15:47:20.968Z,99900.53
2022-08-11T15:50:11.459Z,99895.22
2022-08-11T15:52:47.587Z,99901.44
2022-08-11T15:55:15.940Z,99899.66
2022-08-11T15:57:43.399Z,99891.06
2022-08-11T16:00:10.525Z,99895.38
2022-08-11T16:02:38.378Z,99897.19
2022-08-11T16:05:09.917Z,99895.78
2022-08-11T16:07:40.550Z,99892.56
2022-08-11T16:10:18.883Z,99896.06
2022-08-11T16:12:48.789Z,99888.88
2022-08-11T16:15:20.544Z,99894.50
2022-08-11T16:17:52.648Z,99890.41
2022-08-11T16:20:21.338Z,99885.97
2022-08-11T16:23:00.277Z,99879.38
2022-08-11T16:27:02.411Z,99883.44
2022-08-11T16:28:18.687Z,99881.75
2022-08-11T16:30:46.137Z,99875.19
2022-08-11T16:33:48.286Z,99865.63
2022-08-11T16:36:00.670Z,99868.75
2022-08-11T16:38:28.615Z,99869.25
2022-08-11T16:40:57.655Z,99864.16
2022-08-11T16:43:26.235Z,99874.91
2022-08-11T16:45:54.450Z,99858.84
2022-08-11T16:48:36.948Z,99858.22
2022-08-11T16:51:05.743Z,99850.00
2022-08-11T16:53:59.498Z,99854.97
2022-08-11T16:56:21.606Z,99851.66
2022-08-11T16:58:52.104Z,99856.88
2022-08-11T17:01:21.207Z,99855.94
2022-08-11T17:03:51.941Z,99846.84
2022-08-11T17:06:19.876Z,99850.88
2022-08-11T17:08:56.878Z,99848.91
2022-08-11T17:11:28.978Z,99849.84
2022-08-11T17:13:58.474Z,99853.47
2022-08-11T17:16:28.798Z,99853.88
2022-08-11T17:19:18.315Z,99841.59
2022-08-11T17:21:46.998Z,99837.22
2022-08-11T17:24:15.013Z,99842.84
2022-08-11T17:26:43.556Z,99838.13
2022-08-11T17:29:10.930Z,99838.53
2022-08-11T17:31:38.014Z,99843.41
2022-08-11T17:34:06.308Z,99837.59
2022-08-11T17:36:33.850Z,99825.22
2022-08-11T17:39:00.867Z,99833.69
2022-08-11T17:41:27.702Z,99837.69
2022-08-11T17:43:56.066Z,99839.78
2022-08-11T17:46:23.786Z,99848.13
2022-08-11T17:48:50.849Z,99848.28
2022-08-11T17:51:19.618Z,99842.53
2022-08-11T17:54:17.024Z,99849.63
2022-08-11T17:56:34.563Z,99854.09
2022-08-11T17:59:02.141Z,99849.06
2022-08-11T18:01:29.821Z,99857.41
2022-08-11T18:03:58.341Z,99859.91
2022-08-11T18:06:33.725Z,99863.31
2022-08-11T18:09:03.338Z,99858.91
2022-08-11T18:12:10.721Z,99870.69
2022-08-11T18:14:19.597Z,99865.28
2022-08-11T18:16:46.479Z,99869.50
2022-08-11T18:19:13.477Z,99872.38
2022-08-11T18:21:44.169Z,99872.72
2022-08-11T18:24:13.964Z,99867.69
2022-08-11T18:26:43.720Z,99872.53
2022-08-11T18:29:11.354Z,99872.56
2022-08-11T18:31:42.105Z,99869.88
2022-08-11T18:34:10.771Z,99866.81
2022-08-11T18:36:42.256Z,99863.03
2022-08-11T18:39:10.636Z,99870.41
2022-08-11T18:41:38.255Z,99862.91
2022-08-11T18:44:05.875Z,99874.13
2022-08-11T18:46:35.042Z,99878.34
2022-08-11T18:49:10.630Z,99883.94
2022-08-11T18:51:41.492Z,99879.25
2022-08-11T18:54:09.246Z,99879.28
2022-08-11T18:56:36.461Z,99878.22
2022-08-11T18:59:05.803Z,99882.72
2022-08-11T19:01:36.498Z,99886.97
2022-08-11T19:04:11.884Z,99893.69
2022-08-11T19:06:45.684Z,99899.63
2022-08-11T19:09:13.326Z,99895.41
2022-08-11T19:11:43.496Z,99910.78
2022-08-11T19:14:12.079Z,99917.53
2022-08-11T19:16:40.911Z,99924.81
2022-08-11T19:19:09.202Z,99925.38
2022-08-11T19:21:36.551Z,99922.31
2022-08-11T19:24:04.933Z,99918.94
2022-08-11T19:26:33.036Z,99928.47
2022-08-11T19:29:00.698Z,99922.03
2022-08-11T19:31:28.138Z,99918.97
2022-08-11T19:34:09.605Z,99927.66
2022-08-11T19:36:38.137Z,99927.09
2022-08-11T19:39:05.142Z,99920.91
2022-08-11T19:41:56.159Z,99931.50
2022-08-11T19:44:20.018Z,99931.81
2022-08-11T19:46:47.831Z,99929.84
2022-08-11T19:49:15.865Z,99934.03
2022-08-11T19:51:43.876Z,99936.81
2022-08-11T19:54:11.578Z,99932.03
2022-08-11T19:56:39.062Z,99943.22
2022-08-11T19:59:06.553Z,99937.34
2022-08-11T20:01:33.485Z,99937.59
2022-08-11T20:04:00.413Z,99943.19
2022-08-11T20:06:28.110Z,99939.84
2022-08-11T20:08:58.780Z,99939.78
2022-08-11T20:11:27.148Z,99941.44
2022-08-11T20:13:54.430Z,99940.03
2022-08-11T20:16:23.479Z,99944.72
2022-08-11T20:18:51.240Z,99944.44
2022-08-11T20:21:28.006Z,99944.16
2022-08-11T20:23:57.888Z,99951.09
2022-08-11T20:26:31.070Z,99946.63
2022-08-11T20:28:59.951Z,99947.13
2022-08-11T20:31:26.814Z,99956.31
2022-08-11T20:33:54.349Z,99953.75
2022-08-11T20:36:21.651Z,99953.75
2022-08-11T20:38:49.911Z,99962.38
2022-08-11T20:41:18.810Z,99960.66
2022-08-11T20:44:07.130Z,99956.94
2022-08-11T20:46:35.226Z,99953.75
2022-08-11T20:49:02.624Z,99955.47
2022-08-11T20:51:29.471Z,99958.47
2022-08-11T20:54:05.487Z,99949.69
2022-08-11T20:56:34.882Z,99953.72
2022-08-11T20:59:18.904Z,99951.19
2022-08-11T21:01:52.026Z,99954.31
2022-08-11T21:04:19.958Z,99956.78
2022-08-11T21:06:47.414Z,99962.09
2022-08-11T21:09:15.326Z,99957.41
2022-08-11T21:11:48.192Z,99963.31
2022-08-11T21:14:17.136Z,99961.75
2022-08-11T21:16:47.537Z,99966.91
2022-08-11T21:20:00.764Z,99958.56
2022-08-11T21:22:08.729Z,99957.19
2022-08-11T21:24:36.292Z,99969.69
2022-08-11T21:27:05.868Z,99962.59
2022-08-11T21:29:33.662Z,99971.97
2022-08-11T21:32:01.267Z,99972.56
2022-08-11T21:34:28.935Z,99984.75
2022-08-11T21:36:56.098Z,99970.94
2022-08-11T21:39:25.087Z,99982.28
2022-08-11T21:41:53.715Z,99984.19
2022-08-11T21:44:20.776Z,99976.00
2022-08-11T21:46:48.955Z,99985.78
2022-08-11T21:49:16.482Z,99987.22
2022-08-11T21:51:44.839Z,99987.13
2022-08-11T21:54:12.270Z,99985.16
2022-08-11T21:56:39.768Z,99984.81
2022-08-11T21:59:07.334Z,99986.00
2022-08-11T22:01:34.904Z,99982.47
2022-08-11T22:04:02.831Z,99996.91
2022-08-11T22:06:30.446Z,99985.59
2022-08-11T22:08:57.309Z,99989.47
2022-08-11T22:11:31.916Z,99989.31
2022-08-11T22:14:08.116Z,99992.34
2022-08-11T22:16:35.982Z,99992.19
2022-08-11T22:19:03.832Z,99990.16
2022-08-11T22:22:01.107Z,99998.69
2022-08-11T22:24:18.424Z,99995.16
2022-08-11T22:26:57.054Z,100002.13
2022-08-11T22:29:50.718Z,99995.59
2022-08-11T22:32:11.339Z,99992.94
2022-08-11T22:34:49.142Z,99995.44
2022-08-11T22:37:26.937Z,99996.13
2022-08-11T22:40:00.733Z,100003.44
2022-08-11T22:42:33.234Z,100002.94
2022-08-11T22:45:10.404Z,99995.72
2022-08-11T22:47:40.287Z,99998.00
2022-08-11T22:50:07.744Z,99996.38
2022-08-11T22:52:34.936Z,99993.09
2022-08-11T22:55:02.270Z,99984.88
2022-08-11T22:57:30.033Z,99977.47
2022-08-11T22:59:57.650Z,99984.53
2022-08-11T23:02:25.975Z,99986.06
2022-08-11T23:04:53.429Z,99989.53
2022-08-11T23:07:49.804Z,99988.75
2022-08-11T23:10:07.969Z,99996.25
2022-08-11T23:12:35.566Z,99984.91
2022-08-11T23:15:02.555Z,99992.41
2022-08-11T23:17:29.899Z,99988.03
2022-08-11T23:20:10.705Z,99983.75
2022-08-11T23:22:50.192Z,99991.09
2022-08-11T23:25:18.102Z,99983.66
2022-08-11T23:27:45.899Z,99974.75
2022-08-11T23:30:12.911Z,99980.53
2022-08-11T23:32:42.017Z,99985.91
2022-08-11T23:35:39.318Z,99984.88
2022-08-11T23:37:55.948Z,99983.19
2022-08-11T23:40:27.130Z,99979.78
2022-08-11T23:42:53.982Z,99982.59
2022-08-11T23:45:22.891Z,99977.13
2022-08-11T23:47:51.241Z,99978.09
2022-08-11T23:50:19.024Z,99974.97
2022-08-11T23:52:46.057Z,99980.13
2022-08-11T23:55:13.040Z,99979.34
2022-08-11T23:57:47.945Z,99980.41
